Arcata, CA

12:12 AM PST on December 20, 2014 (GMT -0800)
APRSWXNET Arcata CA US | Change Station
CLOSE
Current Station
Personal Weather Station
Location: Arcata, CA
Elevation: 183 ft
Nearby Weather Stations
Active Advisory: High Surf Advisory

Elev 183 ft 40.88 °N, 124.08 °W | Updated 27 minutes ago

Rain
Rain
50 °F
Feels Like 50 °F
N
2
Wind Variable Wind from ENE
Gusts 4.0 mph

Today
High -- | Low -- °F
--% Chance of Precip.
Yesterday
High -- | Low -- °F
Precip. -- in
7:36 AM 4:51 PM
Waning Crescent, 4% visible
Pressure 30.07 in
Visibility 9.0 miles
Clouds Few 4500 ft
Overcast 6000 ft
Dew Point 49 °F
Humidity 98%
Rainfall 0.12 in
Snow Depth Not available.
UV 0 out of 12
Pollen .70 out of 12
Air Quality Not available.
Flu Activity Not available.
METAR KACV 200753Z AUTO 13009KT 9SM -RA FEW045 OVC060 11/09 A3006 RMK AO2 SLP183 P0002 T01060089 401440100

More Conditions Fewer Conditions

Pressure 30.07 in
Visibility 9.0 miles
Clouds Few 4500 ft
Overcast 6000 ft
Dew Point 49 °F
Humidity 98%
Rainfall 0.12 in
Snow Depth Not available.
UV 0 out of 12
Pollen .70 out of 12
Air Quality Not available.
Flu Activity Not available.
METAR KACV 200753Z AUTO 13009KT 9SM -RA FEW045 OVC060 11/09 A3006 RMK AO2 SLP183 P0002 T01060089 401440100

More Conditions Fewer Conditions

10-Day Weather Forecast

Almanac

Astronomy

Dec. 20, 2014 Rise Set
Actual Time
Civil Twilight
Nautical Twilight
Astronomical Twilight
Moon
Length of Visible Light
Length of Day
Tomorrow will be .
, % of the Moon is Illuminated

Today's Extremes

State Highs State Lows

Community

WunderPhotos

Upload Photos

1,779,146 photos uploaded!

WunderBlogs® & News

Nearby

Air Quality

  Air Quality AQ Index Pollutant
Not available.

Snow Depth

Station Depth Elevation

Earthquake Activity

City Distance Mag. Time & Date
Minimum magnitude displayed is 2.5.

Coastal Water Temperatures

Place Temperature

Nearby Weather Stations